createdAt,value
2018-05-01T00:00:41.749Z,974.23
2018-05-01T00:01:41.940Z,974.14
2018-05-01T00:02:42.124Z,974.22
2018-05-01T00:05:14.243Z,974.26
2018-05-01T00:06:14.416Z,974.20
2018-05-01T00:07:14.592Z,974.25
2018-05-01T00:08:14.796Z,974.19
2018-05-01T00:09:14.976Z,974.28
2018-05-01T00:10:15.161Z,974.29
2018-05-01T00:11:15.345Z,974.26
2018-05-01T00:12:15.541Z,974.25
2018-05-01T00:13:15.740Z,974.22
2018-05-01T00:14:15.929Z,974.15
2018-05-01T00:15:16.140Z,974.24
2018-05-01T00:16:16.352Z,974.11
2018-05-01T00:17:16.500Z,974.27
2018-05-01T00:18:16.688Z,974.11
2018-05-01T00:19:16.900Z,974.27
2018-05-01T00:20:17.108Z,974.22
2018-05-01T00:21:17.299Z,974.10
2018-05-01T00:22:17.479Z,974.12
2018-05-01T00:23:17.684Z,974.17
2018-05-01T00:24:17.884Z,974.17
2018-05-01T00:25:18.066Z,974.22
2018-05-01T00:26:18.269Z,974.20
2018-05-01T00:27:18.452Z,974.24
2018-05-01T00:28:18.637Z,974.22
2018-05-01T00:29:18.844Z,974.26
2018-05-01T00:30:19.052Z,974.21
2018-05-01T00:31:19.244Z,974.24
2018-05-01T00:32:19.437Z,974.18
2018-05-01T00:33:19.644Z,974.16
2018-05-01T00:34:19.848Z,974.20
2018-05-01T00:35:20.032Z,974.14
2018-05-01T00:36:20.216Z,974.15
2018-05-01T00:37:20.403Z,974.21
2018-05-01T00:38:20.594Z,974.19
2018-05-01T00:39:20.791Z,974.26
2018-05-01T00:40:21.002Z,974.25
2018-05-01T00:41:21.182Z,974.18
2018-05-01T00:42:21.367Z,974.25
2018-05-01T00:43:21.548Z,974.27
2018-05-01T00:44:21.752Z,974.31
2018-05-01T00:45:21.949Z,974.27
2018-05-01T00:46:22.141Z,974.30
2018-05-01T00:47:22.330Z,974.28
2018-05-01T00:48:22.509Z,974.34
2018-05-01T00:49:22.708Z,974.31
2018-05-01T00:50:22.892Z,974.30
2018-05-01T00:51:23.121Z,974.34
2018-05-01T00:52:23.271Z,974.36
2018-05-01T00:53:23.447Z,974.33
2018-05-01T00:54:23.655Z,974.31
2018-05-01T00:55:23.852Z,974.26
2018-05-01T00:56:24.060Z,974.29
2018-05-01T00:58:56.775Z,974.36
2018-05-01T00:59:56.947Z,974.26
2018-05-01T01:00:57.155Z,974.35
2018-05-01T01:01:57.341Z,974.39
2018-05-01T01:02:57.541Z,974.46
2018-05-01T01:03:57.746Z,974.48
2018-05-01T01:04:57.930Z,974.52
2018-05-01T01:05:58.109Z,974.52
2018-05-01T01:06:58.302Z,974.51
2018-05-01T01:07:58.490Z,974.49
2018-05-01T01:08:58.682Z,974.48
2018-05-01T01:09:58.881Z,974.45
2018-05-01T01:10:59.067Z,974.51
2018-05-01T01:11:59.269Z,974.52
2018-05-01T01:12:59.454Z,974.57
2018-05-01T01:13:59.640Z,974.48
2018-05-01T01:14:59.834Z,974.63
2018-05-01T01:16:00.020Z,974.28
2018-05-01T01:17:00.233Z,974.51
2018-05-01T01:18:00.433Z,974.47
2018-05-01T01:19:00.631Z,974.53
2018-05-01T01:20:00.823Z,974.54
2018-05-01T01:21:01.031Z,974.53
2018-05-01T01:22:01.216Z,974.55
2018-05-01T01:23:01.422Z,974.60
2018-05-01T01:24:01.623Z,974.72
2018-05-01T01:25:01.809Z,974.70
2018-05-01T01:26:01.995Z,974.73
2018-05-01T01:27:02.200Z,974.54
2018-05-01T01:28:02.397Z,974.83
2018-05-01T01:29:02.645Z,974.74
2018-05-01T01:30:02.844Z,974.67
2018-05-01T01:31:03.038Z,974.77
2018-05-01T01:32:03.225Z,974.77
2018-05-01T01:33:03.416Z,974.77
2018-05-01T01:34:03.622Z,974.61
2018-05-01T01:35:03.809Z,974.82
2018-05-01T01:36:03.985Z,974.84
2018-05-01T01:38:38.320Z,974.82
2018-05-01T01:39:36.860Z,974.67
2018-05-01T01:40:37.063Z,974.87
2018-05-01T01:41:37.245Z,974.99
2018-05-01T01:42:37.454Z,974.84
2018-05-01T01:43:37.657Z,975.06
2018-05-01T01:44:37.842Z,975.01
2018-05-01T01:47:12.179Z,975.16
2018-05-01T01:48:10.721Z,975.15
2018-05-01T01:49:10.933Z,975.13
2018-05-01T01:50:11.121Z,975.16
2018-05-01T01:51:11.306Z,975.12
2018-05-01T01:52:11.521Z,975.12
2018-05-01T01:53:11.690Z,975.18
2018-05-01T01:54:11.876Z,975.21
2018-05-01T01:55:12.084Z,975.19
2018-05-01T01:56:12.283Z,975.21
2018-05-01T01:57:12.468Z,975.16
2018-05-01T01:58:12.669Z,975.15
2018-05-01T01:59:12.879Z,975.19
2018-05-01T02:00:13.058Z,975.26
2018-05-01T02:01:13.244Z,975.26
2018-05-01T02:02:13.457Z,975.22
2018-05-01T02:03:13.684Z,975.20
2018-05-01T02:04:13.867Z,975.22
2018-05-01T02:05:14.073Z,975.23
2018-05-01T02:06:14.270Z,975.15
2018-05-01T02:07:14.453Z,975.23
2018-05-01T02:08:14.647Z,975.30
2018-05-01T02:09:14.836Z,975.25
2018-05-01T02:10:15.041Z,975.32
2018-05-01T02:11:15.224Z,975.27
2018-05-01T02:12:15.403Z,975.31
2018-05-01T02:13:15.592Z,975.37
2018-05-01T02:14:15.800Z,975.35
2018-05-01T02:15:15.987Z,975.34
2018-05-01T02:16:16.167Z,975.36
2018-05-01T02:17:16.373Z,975.41
2018-05-01T02:18:16.549Z,975.34
2018-05-01T02:19:16.758Z,975.35
2018-05-01T02:20:16.940Z,975.37
2018-05-01T02:21:17.140Z,975.34
2018-05-01T02:22:17.322Z,975.38
2018-05-01T02:23:17.513Z,975.42
2018-05-01T02:24:17.693Z,975.41
2018-05-01T02:25:17.890Z,975.44
2018-05-01T02:26:18.077Z,975.45
2018-05-01T02:28:50.196Z,975.49
2018-05-01T02:29:50.360Z,975.53
2018-05-01T02:30:50.564Z,975.61
2018-05-01T02:31:50.748Z,975.63
2018-05-01T02:32:50.925Z,975.58
2018-05-01T02:33:51.129Z,975.66
2018-05-01T02:34:51.318Z,975.67
2018-05-01T02:35:51.514Z,975.68
2018-05-01T02:36:51.711Z,975.73
2018-05-01T02:37:51.887Z,975.74
2018-05-01T02:38:52.072Z,975.71
2018-05-01T02:39:52.282Z,975.78
2018-05-01T02:40:52.464Z,975.77
2018-05-01T02:41:52.651Z,975.76
2018-05-01T02:42:52.833Z,975.79
2018-05-01T02:43:53.025Z,975.77
2018-05-01T02:44:53.238Z,975.74
2018-05-01T02:45:53.438Z,975.77
2018-05-01T02:46:53.619Z,975.72
2018-05-01T02:47:53.801Z,975.76
2018-05-01T02:48:54.007Z,975.79
2018-05-01T02:49:54.194Z,975.78
2018-05-01T02:50:54.398Z,975.80
2018-05-01T02:51:54.579Z,975.80
2018-05-01T02:52:54.760Z,975.81
2018-05-01T02:53:54.971Z,975.82
2018-05-01T02:54:55.175Z,975.80
2018-05-01T02:55:55.364Z,975.84
2018-05-01T02:56:55.549Z,975.78
2018-05-01T02:57:55.730Z,975.81
2018-05-01T02:58:55.906Z,975.76
2018-05-01T02:59:56.089Z,975.81
2018-05-01T03:00:56.269Z,975.83
2018-05-01T03:01:56.454Z,975.81
2018-05-01T03:02:56.657Z,975.81
2018-05-01T03:03:56.867Z,975.81
2018-05-01T03:04:57.045Z,975.85
2018-05-01T03:05:57.251Z,975.86
2018-05-01T03:06:57.446Z,975.90
2018-05-01T03:07:57.627Z,975.92
2018-05-01T03:08:57.804Z,975.91
2018-05-01T03:09:57.982Z,975.91
2018-05-01T03:10:58.163Z,975.94
2018-05-01T03:11:58.390Z,975.95
2018-05-01T03:12:58.600Z,975.94
2018-05-01T03:13:58.787Z,976.03
2018-05-01T03:14:58.973Z,976.05
2018-05-01T03:15:59.198Z,976.01
2018-05-01T03:16:59.275Z,976.03
2018-05-01T03:17:59.483Z,976.07
2018-05-01T03:18:59.662Z,976.07
2018-05-01T03:19:59.861Z,976.06
2018-05-01T03:21:00.061Z,976.11
2018-05-01T03:22:00.254Z,976.08
2018-05-01T03:23:00.458Z,976.04
2018-05-01T03:24:00.662Z,976.10
2018-05-01T03:25:00.837Z,976.11
2018-05-01T03:26:01.054Z,976.06
2018-05-01T03:27:01.234Z,976.03
2018-05-01T03:28:01.429Z,976.11
2018-05-01T03:29:01.626Z,976.13
2018-05-01T03:30:01.813Z,976.16
2018-05-01T03:31:02.015Z,976.12
2018-05-01T03:32:02.200Z,976.16
2018-05-01T03:33:02.383Z,976.15
2018-05-01T03:34:02.578Z,976.19
2018-05-01T03:35:02.764Z,976.23
2018-05-01T03:36:02.960Z,976.25
2018-05-01T03:37:03.163Z,976.29
2018-05-01T03:38:03.343Z,976.24
2018-05-01T03:39:03.627Z,976.21
2018-05-01T03:40:03.733Z,976.28
2018-05-01T03:41:03.930Z,976.27
2018-05-01T03:42:04.108Z,976.29
2018-05-01T03:43:04.282Z,976.28
2018-05-01T03:45:36.982Z,976.37
2018-05-01T03:46:37.142Z,976.40
2018-05-01T03:47:37.331Z,976.42
2018-05-01T03:48:37.543Z,976.44
2018-05-01T03:49:37.707Z,976.48
2018-05-01T03:50:37.893Z,976.47
2018-05-01T03:51:38.072Z,976.56
2018-05-01T03:52:38.251Z,976.54
2018-05-01T03:53:38.430Z,976.60
2018-05-01T03:54:38.618Z,976.56
2018-05-01T03:55:38.802Z,976.59
2018-05-01T03:56:39.007Z,976.60
2018-05-01T03:57:39.193Z,976.61
2018-05-01T03:58:39.395Z,976.66
2018-05-01T03:59:39.579Z,976.59
2018-05-01T04:00:39.783Z,976.66
2018-05-01T04:03:13.617Z,976.78
2018-05-01T04:04:12.037Z,976.72
2018-05-01T04:05:12.235Z,976.73
2018-05-01T04:06:12.424Z,976.74
2018-05-01T04:07:12.609Z,976.74
2018-05-01T04:08:12.805Z,976.74
2018-05-01T04:09:13.015Z,976.78
2018-05-01T04:10:13.219Z,976.78
2018-05-01T04:11:13.405Z,976.86
2018-05-01T04:12:13.580Z,976.85
2018-05-01T04:13:13.758Z,976.84
2018-05-01T04:14:13.975Z,976.83
2018-05-01T04:15:14.143Z,976.92
2018-05-01T04:16:14.348Z,976.93
2018-05-01T04:17:14.542Z,976.94
2018-05-01T04:18:14.725Z,976.92
2018-05-01T04:19:14.909Z,977.00
2018-05-01T04:20:15.102Z,977.01
2018-05-01T04:21:15.283Z,977.04
2018-05-01T04:22:15.484Z,977.02
2018-05-01T04:23:15.677Z,977.02
2018-05-01T04:24:15.855Z,977.05
2018-05-01T04:25:16.067Z,977.05
2018-05-01T04:26:16.275Z,977.02
2018-05-01T04:27:16.455Z,977.09
2018-05-01T04:28:16.652Z,977.07
2018-05-01T04:29:16.839Z,977.07
2018-05-01T04:30:17.031Z,977.13
2018-05-01T04:31:17.237Z,977.12
2018-05-01T04:32:17.423Z,977.11
2018-05-01T04:33:17.617Z,977.12
2018-05-01T04:34:17.794Z,977.17
2018-05-01T04:35:17.983Z,977.13
2018-05-01T04:36:18.172Z,977.12
2018-05-01T04:37:18.368Z,977.16
2018-05-01T04:39:50.452Z,977.25
2018-05-01T04:40:50.621Z,977.22
2018-05-01T04:41:50.896Z,977.25
2018-05-01T04:42:50.967Z,977.26
2018-05-01T04:45:25.799Z,977.31
2018-05-01T04:46:23.968Z,977.31
2018-05-01T04:47:24.145Z,977.23
2018-05-01T04:48:24.347Z,977.26
2018-05-01T04:49:24.531Z,977.25
2018-05-01T04:50:24.728Z,977.29
2018-05-01T04:51:24.934Z,977.27
2018-05-01T04:53:57.033Z,977.27
2018-05-01T04:54:57.223Z,977.32
2018-05-01T04:55:57.435Z,977.28
2018-05-01T04:56:57.621Z,977.29
2018-05-01T04:57:57.812Z,977.29
2018-05-01T04:58:57.996Z,977.32
2018-05-01T04:59:58.189Z,977.29
2018-05-01T05:00:58.368Z,977.29
2018-05-01T05:01:58.564Z,977.34
2018-05-01T05:02:58.765Z,977.34
2018-05-01T05:03:58.967Z,977.33
2018-05-01T05:04:59.148Z,977.35
2018-05-01T05:05:59.339Z,977.35
2018-05-01T05:06:59.529Z,977.36
2018-05-01T05:07:59.724Z,977.35
2018-05-01T05:08:59.909Z,977.41
2018-05-01T05:10:00.115Z,977.49
2018-05-01T05:11:00.301Z,977.53
2018-05-01T05:12:00.495Z,977.54
2018-05-01T05:13:00.676Z,977.47
2018-05-01T05:14:00.863Z,977.49
2018-05-01T05:15:01.043Z,977.41
2018-05-01T05:16:01.243Z,977.51
2018-05-01T05:17:01.441Z,977.51
2018-05-01T05:18:01.651Z,977.57
2018-05-01T05:19:01.833Z,977.57
2018-05-01T05:20:02.034Z,977.55
2018-05-01T05:21:02.224Z,977.55
2018-05-01T05:22:02.430Z,977.56
2018-05-01T05:23:02.607Z,978.07
2018-05-01T05:24:02.857Z,977.57
2018-05-01T05:25:02.931Z,977.59
2018-05-01T05:26:03.131Z,977.69
2018-05-01T05:28:36.975Z,977.62
2018-05-01T05:29:35.136Z,977.60
2018-05-01T05:30:35.311Z,977.53
2018-05-01T05:31:35.498Z,977.55
2018-05-01T05:32:35.685Z,977.57
2018-05-01T05:33:35.893Z,977.55
2018-05-01T05:34:36.128Z,977.55
2018-05-01T05:35:36.260Z,977.63
2018-05-01T05:36:36.436Z,977.64
2018-05-01T05:37:36.623Z,977.62
2018-05-01T05:38:36.823Z,977.67
2018-05-01T05:39:37.007Z,977.65
2018-05-01T05:40:37.204Z,977.70
2018-05-01T05:41:37.406Z,977.63
2018-05-01T05:42:37.604Z,977.72
2018-05-01T05:43:37.788Z,977.69
2018-05-01T05:44:37.970Z,977.74
2018-05-01T05:45:38.175Z,977.71
2018-05-01T05:46:38.370Z,977.77
2018-05-01T05:47:38.565Z,977.78
2018-05-01T05:48:38.745Z,977.83
2018-05-01T05:49:38.932Z,977.79
2018-05-01T05:50:39.133Z,977.82
2018-05-01T05:51:39.333Z,977.90
2018-05-01T05:52:39.533Z,977.95
2018-05-01T05:53:39.721Z,977.88
2018-05-01T05:54:39.898Z,977.87
2018-05-01T05:55:40.082Z,977.87
2018-05-01T05:56:40.265Z,977.91
2018-05-01T05:57:40.461Z,978.04
2018-05-01T05:58:40.671Z,978.18
2018-05-01T05:59:40.865Z,978.10
2018-05-01T06:00:41.069Z,980.26
2018-05-01T06:01:41.271Z,978.30
2018-05-01T06:04:13.715Z,978.13
2018-05-01T06:05:13.872Z,978.12
2018-05-01T06:06:14.062Z,978.13
2018-05-01T06:07:14.282Z,978.10
2018-05-01T06:08:14.434Z,978.15
2018-05-01T06:09:14.640Z,978.20
2018-05-01T06:10:14.844Z,978.16
2018-05-01T06:11:15.026Z,978.13
2018-05-01T06:12:15.218Z,978.09
2018-05-01T06:13:15.402Z,978.13
2018-05-01T06:14:15.603Z,978.25
2018-05-01T06:15:15.781Z,978.14
2018-05-01T06:16:15.980Z,978.03
2018-05-01T06:17:16.171Z,978.07
2018-05-01T06:18:16.473Z,978.06
2018-05-01T06:19:16.538Z,978.11
2018-05-01T06:20:16.718Z,978.28
2018-05-01T06:21:16.965Z,978.21
2018-05-01T06:22:17.040Z,978.60
2018-05-01T06:23:17.225Z,978.23
2018-05-01T06:24:17.421Z,978.21
2018-05-01T06:25:17.616Z,978.13
2018-05-01T06:26:17.805Z,978.22
2018-05-01T06:27:17.994Z,978.24
2018-05-01T06:28:18.196Z,978.20
2018-05-01T06:29:18.377Z,978.19
2018-05-01T06:30:18.559Z,978.63
2018-05-01T06:31:18.781Z,978.77
2018-05-01T06:32:18.948Z,978.45
2018-05-01T06:33:19.143Z,978.41
2018-05-01T06:34:19.322Z,978.43
2018-05-01T06:35:19.536Z,978.42
2018-05-01T06:36:19.722Z,979.49
2018-05-01T06:37:19.911Z,978.72
2018-05-01T06:38:20.100Z,978.61
2018-05-01T06:39:20.297Z,978.61
2018-05-01T06:40:20.488Z,978.62
2018-05-01T06:41:20.677Z,979.13
2018-05-01T06:42:20.875Z,978.78
2018-05-01T06:43:21.073Z,978.71
2018-05-01T06:44:21.264Z,978.83
2018-05-01T06:45:21.480Z,979.92
2018-05-01T06:46:21.676Z,979.70
2018-05-01T06:47:21.874Z,978.86
2018-05-01T06:48:22.076Z,978.90
2018-05-01T06:49:22.269Z,979.00
2018-05-01T06:50:22.452Z,978.85
2018-05-01T06:51:22.660Z,979.27
2018-05-01T06:52:22.862Z,978.92
2018-05-01T06:53:23.054Z,979.08
2018-05-01T06:54:23.246Z,978.84
2018-05-01T06:56:56.105Z,978.79
2018-05-01T06:57:56.297Z,978.93
2018-05-01T06:58:56.489Z,978.86
2018-05-01T06:59:56.663Z,978.89
2018-05-01T07:00:56.853Z,978.79
2018-05-01T07:01:57.065Z,978.77
2018-05-01T07:02:57.264Z,978.68
2018-05-01T07:03:57.449Z,978.81
2018-05-01T07:04:57.644Z,978.82
2018-05-01T07:05:57.854Z,978.80
2018-05-01T07:06:58.039Z,978.85
2018-05-01T07:07:58.220Z,978.87
2018-05-01T07:08:58.568Z,978.79
2018-05-01T07:09:58.720Z,978.80
2018-05-01T07:10:58.838Z,978.86
2018-05-01T07:11:59.057Z,979.14
2018-05-01T07:12:59.265Z,978.76
2018-05-01T07:15:32.222Z,978.81
2018-05-01T07:16:32.396Z,978.85
2018-05-01T07:17:32.597Z,978.84
2018-05-01T07:18:32.807Z,978.79
2018-05-01T07:19:33.011Z,978.84
2018-05-01T07:20:33.197Z,978.82
2018-05-01T07:21:33.400Z,978.80
2018-05-01T07:22:33.581Z,978.80
2018-05-01T07:23:33.785Z,978.83
2018-05-01T07:24:33.990Z,978.80
2018-05-01T07:25:34.173Z,978.77
2018-05-01T07:26:34.381Z,978.94
2018-05-01T07:27:34.650Z,978.89
2018-05-01T07:28:34.763Z,978.83
2018-05-01T07:29:34.970Z,978.84
2018-05-01T07:30:35.178Z,978.91
2018-05-01T07:31:35.384Z,978.85
2018-05-01T07:32:35.576Z,978.82
2018-05-01T07:33:35.774Z,978.89
2018-05-01T07:36:08.472Z,978.91
2018-05-01T07:37:08.651Z,978.91
2018-05-01T07:38:08.868Z,978.90
2018-05-01T07:39:09.066Z,978.95
2018-05-01T07:40:09.254Z,978.99
2018-05-01T07:41:09.436Z,978.98
2018-05-01T07:42:09.624Z,979.01
2018-05-01T07:43:09.802Z,979.01
2018-05-01T07:44:09.996Z,979.04
2018-05-01T07:45:10.180Z,978.99
2018-05-01T07:46:10.384Z,979.06
2018-05-01T07:47:10.570Z,979.03
2018-05-01T07:48:10.780Z,979.06
2018-05-01T07:49:10.997Z,979.04
2018-05-01T07:50:11.188Z,979.04
2018-05-01T07:51:11.392Z,979.11
2018-05-01T07:52:11.596Z,979.09
2018-05-01T07:53:11.772Z,979.00
2018-05-01T07:54:11.959Z,979.08
2018-05-01T07:55:12.156Z,979.07
2018-05-01T07:56:12.344Z,978.98
2018-05-01T07:57:12.564Z,979.07
2018-05-01T07:58:12.717Z,979.08
2018-05-01T07:59:12.941Z,979.12
2018-05-01T08:00:13.122Z,979.12
2018-05-01T08:01:13.346Z,979.13
2018-05-01T08:02:13.531Z,979.16
2018-05-01T08:03:13.718Z,979.20
2018-05-01T08:04:13.904Z,979.24
2018-05-01T08:05:14.093Z,979.26
2018-05-01T08:06:14.276Z,979.23
2018-05-01T08:07:14.451Z,979.25
2018-05-01T08:08:14.635Z,979.15
2018-05-01T08:09:14.834Z,979.23
2018-05-01T08:10:15.045Z,979.15
2018-05-01T08:11:15.241Z,979.24
2018-05-01T08:13:51.580Z,979.24
2018-05-01T08:14:48.248Z,979.32
2018-05-01T08:15:48.452Z,979.28
2018-05-01T08:16:48.636Z,979.31
2018-05-01T08:17:48.820Z,979.32
2018-05-01T08:18:49.003Z,979.42
2018-05-01T08:19:49.191Z,979.34
2018-05-01T08:20:49.374Z,979.39
2018-05-01T08:21:49.552Z,979.40
2018-05-01T08:22:49.743Z,979.43
2018-05-01T08:23:49.929Z,979.52
2018-05-01T08:24:50.204Z,979.50
2018-05-01T08:25:50.295Z,979.56
2018-05-01T08:26:50.489Z,979.65
2018-05-01T08:27:50.723Z,979.59
2018-05-01T08:28:50.856Z,979.58
2018-05-01T08:29:51.078Z,979.53
2018-05-01T08:30:51.266Z,979.57
2018-05-01T08:31:51.477Z,979.61
2018-05-01T08:32:51.678Z,979.57
2018-05-01T08:33:51.881Z,979.56
2018-05-01T08:34:52.068Z,979.56
2018-05-01T08:35:52.269Z,979.64
2018-05-01T08:36:52.477Z,979.61
2018-05-01T08:37:52.685Z,979.61
2018-05-01T08:38:52.867Z,979.68
2018-05-01T08:39:53.065Z,979.67
2018-05-01T08:40:53.246Z,979.68
2018-05-01T08:41:53.446Z,979.67
2018-05-01T08:42:53.640Z,979.67
2018-05-01T08:43:53.825Z,979.69
2018-05-01T08:44:54.014Z,979.71
2018-05-01T08:45:54.199Z,979.76
2018-05-01T08:46:54.401Z,979.77
2018-05-01T08:47:54.597Z,979.85
2018-05-01T08:48:54.855Z,979.80
2018-05-01T08:49:54.925Z,979.83
2018-05-01T08:50:55.115Z,979.84
2018-05-01T08:51:55.303Z,979.86
2018-05-01T08:52:55.494Z,979.85
2018-05-01T08:53:55.711Z,979.79
2018-05-01T08:54:55.923Z,979.77
2018-05-01T08:55:56.108Z,979.76
2018-05-01T08:56:56.296Z,979.78
2018-05-01T08:57:56.478Z,979.75
2018-05-01T08:58:56.659Z,979.76
2018-05-01T08:59:56.853Z,979.83
2018-05-01T09:00:57.039Z,979.87
2018-05-01T09:01:57.244Z,979.81
2018-05-01T09:02:57.425Z,979.90
2018-05-01T09:03:57.630Z,979.92
2018-05-01T09:04:57.813Z,979.90
2018-05-01T09:05:58.003Z,979.91
2018-05-01T09:08:31.843Z,979.99
2018-05-01T09:09:30.397Z,979.99
2018-05-01T09:10:30.569Z,979.98
2018-05-01T09:11:30.785Z,980.03
2018-05-01T09:12:30.977Z,980.08
2018-05-01T09:13:31.169Z,979.98
2018-05-01T09:14:31.354Z,979.92
2018-05-01T09:15:31.553Z,979.99
2018-05-01T09:16:31.738Z,979.96
2018-05-01T09:17:31.918Z,980.03
2018-05-01T09:18:32.104Z,979.99
2018-05-01T09:19:32.309Z,980.00
2018-05-01T09:20:32.507Z,980.03
2018-05-01T09:21:32.706Z,980.23
2018-05-01T09:22:32.891Z,980.20
2018-05-01T09:23:33.073Z,980.30
2018-05-01T09:24:33.275Z,980.13
2018-05-01T09:25:33.507Z,980.51
2018-05-01T09:26:33.638Z,980.40
2018-05-01T09:27:33.830Z,980.35
2018-05-01T09:28:34.045Z,980.68
2018-05-01T09:29:34.242Z,980.70
2018-05-01T09:30:34.428Z,980.51
2018-05-01T09:31:34.622Z,980.37
2018-05-01T09:32:34.916Z,980.31
2018-05-01T09:33:34.949Z,980.20
2018-05-01T09:34:35.143Z,980.19
2018-05-01T09:35:35.359Z,980.06
2018-05-01T09:36:35.579Z,980.02
2018-05-01T09:37:35.771Z,980.01
2018-05-01T09:38:35.965Z,979.99
2018-05-01T09:39:36.176Z,979.98
2018-05-01T09:40:36.373Z,980.04
2018-05-01T09:41:36.575Z,979.95
2018-05-01T09:42:36.756Z,979.94
2018-05-01T09:43:36.971Z,979.97
2018-05-01T09:44:37.225Z,979.96
2018-05-01T09:45:37.419Z,979.99
2018-05-01T09:46:37.627Z,979.97
2018-05-01T09:47:37.875Z,979.99
2018-05-01T09:48:38.032Z,980.01
2018-05-01T09:49:38.225Z,980.02
2018-05-01T09:50:38.412Z,980.04
2018-05-01T09:51:38.621Z,980.04
2018-05-01T09:52:38.840Z,980.03
2018-05-01T09:53:39.041Z,979.98
2018-05-01T09:54:39.242Z,979.89
2018-05-01T09:55:39.453Z,979.90
2018-05-01T09:56:39.647Z,979.89
2018-05-01T09:57:39.843Z,979.90
2018-05-01T09:58:40.033Z,979.93
2018-05-01T09:59:40.233Z,979.93
2018-05-01T10:00:40.424Z,979.95
2018-05-01T10:01:40.639Z,979.99
2018-05-01T10:02:40.870Z,980.04
2018-05-01T10:03:41.054Z,980.53
2018-05-01T10:04:41.252Z,980.12
2018-05-01T10:05:41.468Z,980.29
2018-05-01T10:06:41.684Z,980.02
2018-05-01T10:07:41.880Z,980.13
2018-05-01T10:08:42.084Z,980.63
2018-05-01T10:09:42.280Z,980.50
2018-05-01T10:12:15.044Z,980.24
2018-05-01T10:13:15.148Z,980.17
2018-05-01T10:14:15.347Z,980.61
2018-05-01T10:15:15.535Z,980.63
2018-05-01T10:16:15.734Z,980.67
2018-05-01T10:17:15.928Z,980.62
2018-05-01T10:18:16.139Z,980.56
2018-05-01T10:19:16.341Z,980.20
2018-05-01T10:20:16.549Z,980.37
2018-05-01T10:21:16.761Z,980.54
2018-05-01T10:22:17.065Z,980.17
2018-05-01T10:23:17.165Z,980.43
2018-05-01T10:24:17.353Z,980.48
2018-05-01T10:25:17.556Z,980.56
2018-05-01T10:26:17.777Z,980.13
2018-05-01T10:27:17.987Z,980.41
2018-05-01T10:28:18.183Z,980.57
2018-05-01T10:29:18.389Z,980.54
2018-05-01T10:30:18.609Z,980.55
2018-05-01T10:31:18.794Z,980.12
2018-05-01T10:32:19.007Z,980.58
2018-05-01T10:33:19.202Z,980.49
2018-05-01T10:34:19.415Z,980.20
2018-05-01T10:35:19.616Z,980.18
2018-05-01T10:36:19.812Z,980.19
2018-05-01T10:37:20.016Z,980.32
2018-05-01T10:38:20.195Z,980.16
2018-05-01T10:39:20.407Z,980.56
2018-05-01T10:40:20.729Z,980.54
2018-05-01T10:41:20.798Z,980.34
2018-05-01T10:43:52.925Z,980.39
2018-05-01T10:44:53.106Z,980.58
2018-05-01T10:45:53.312Z,980.43
2018-05-01T10:46:53.504Z,980.30
2018-05-01T10:47:53.734Z,980.63
2018-05-01T10:48:53.938Z,980.66
2018-05-01T10:49:54.131Z,980.64
2018-05-01T10:50:54.329Z,980.64
2018-05-01T10:51:54.516Z,980.75
2018-05-01T10:52:54.719Z,980.30
2018-05-01T10:53:54.917Z,980.30
2018-05-01T10:54:55.122Z,980.61
2018-05-01T10:55:55.331Z,980.33
2018-05-01T10:56:55.531Z,980.29
2018-05-01T10:57:55.721Z,980.48
2018-05-01T10:58:55.905Z,980.65
2018-05-01T10:59:56.106Z,980.59
2018-05-01T11:00:56.313Z,980.82
2018-05-01T11:01:56.514Z,980.72
2018-05-01T11:02:56.712Z,980.66
2018-05-01T11:03:56.922Z,980.38
2018-05-01T11:04:57.105Z,980.25
2018-05-01T11:05:57.317Z,980.31
2018-05-01T11:06:57.516Z,980.43
2018-05-01T11:07:57.723Z,980.51
2018-05-01T11:08:57.924Z,980.47
2018-05-01T11:09:58.141Z,980.42
2018-05-01T11:10:58.349Z,980.39
2018-05-01T11:11:58.592Z,980.32
2018-05-01T11:12:58.759Z,980.44
2018-05-01T11:13:58.959Z,980.31
2018-05-01T11:14:59.171Z,980.47
2018-05-01T11:15:59.352Z,980.43
2018-05-01T11:16:59.569Z,980.41
2018-05-01T11:17:59.775Z,980.37
2018-05-01T11:18:59.976Z,980.37
2018-05-01T11:20:00.163Z,980.33
2018-05-01T11:21:00.375Z,980.44
2018-05-01T11:22:00.501Z,980.43
2018-05-01T11:23:00.679Z,980.36
2018-05-01T11:24:00.870Z,980.42
2018-05-01T11:25:01.074Z,980.44
2018-05-01T11:26:01.363Z,980.43
2018-05-01T11:27:01.500Z,980.46
2018-05-01T11:28:01.685Z,980.44
2018-05-01T11:29:01.867Z,980.39
2018-05-01T11:30:02.054Z,980.35
2018-05-01T11:31:02.247Z,980.40
2018-05-01T11:32:02.462Z,980.39
2018-05-01T11:33:02.707Z,980.32
2018-05-01T11:34:02.892Z,980.38
2018-05-01T11:35:03.103Z,980.41
2018-05-01T11:36:03.292Z,980.37
2018-05-01T11:37:03.493Z,980.47
2018-05-01T11:38:03.678Z,980.49
2018-05-01T11:39:03.861Z,980.54
2018-05-01T11:40:04.061Z,980.39
2018-05-01T11:41:04.263Z,980.44
2018-05-01T11:42:04.448Z,980.45
2018-05-01T11:43:04.658Z,980.49
2018-05-01T11:44:04.872Z,980.47
2018-05-01T11:45:05.097Z,980.48
2018-05-01T11:46:05.280Z,980.51
2018-05-01T11:47:05.482Z,980.39
2018-05-01T11:48:05.675Z,980.55
2018-05-01T11:49:05.883Z,980.52
2018-05-01T11:50:06.081Z,980.51
2018-05-01T11:51:06.411Z,980.65
2018-05-01T11:52:06.532Z,980.63
2018-05-01T11:53:06.722Z,980.60
2018-05-01T11:54:06.916Z,980.56
2018-05-01T11:55:07.149Z,980.58
2018-05-01T11:56:07.362Z,980.60
2018-05-01T11:57:07.554Z,980.69
2018-05-01T11:58:07.752Z,980.78
2018-05-01T11:59:07.946Z,980.61
2018-05-01T12:00:08.152Z,980.60
2018-05-01T12:01:08.350Z,980.68
2018-05-01T12:02:08.534Z,980.59
2018-05-01T12:03:08.740Z,980.67
2018-05-01T12:04:08.927Z,980.66
2018-05-01T12:05:09.133Z,980.65
2018-05-01T12:06:09.332Z,980.62
2018-05-01T12:07:09.543Z,980.74
2018-05-01T12:08:09.741Z,980.79
2018-05-01T12:09:09.933Z,980.78
2018-05-01T12:10:10.142Z,980.75
2018-05-01T12:11:10.351Z,980.75
2018-05-01T12:12:10.561Z,980.68
2018-05-01T12:14:43.406Z,980.84
2018-05-01T12:15:43.458Z,980.85
2018-05-01T12:16:43.651Z,980.82
2018-05-01T12:17:43.851Z,980.70
2018-05-01T12:18:44.042Z,980.79
2018-05-01T12:19:44.244Z,980.84
2018-05-01T12:20:44.446Z,980.90
2018-05-01T12:21:44.705Z,980.64
2018-05-01T12:22:44.902Z,980.62
2018-05-01T12:23:45.158Z,980.60
2018-05-01T12:24:45.316Z,980.61
2018-05-01T12:25:45.502Z,980.65
2018-05-01T12:26:45.713Z,980.68
2018-05-01T12:27:45.929Z,980.71
2018-05-01T12:28:46.111Z,980.71
2018-05-01T12:29:46.306Z,980.75
2018-05-01T12:30:46.500Z,980.72
2018-05-01T12:31:46.686Z,980.72
2018-05-01T12:32:46.936Z,980.79
2018-05-01T12:33:47.025Z,980.67
2018-05-01T12:34:47.220Z,980.79
2018-05-01T12:37:20.124Z,980.74
2018-05-01T12:38:20.302Z,980.66
2018-05-01T12:39:20.480Z,980.68
2018-05-01T12:40:20.673Z,980.63
2018-05-01T12:41:21.009Z,980.63
2018-05-01T12:42:21.121Z,980.68
2018-05-01T12:43:21.274Z,980.66
2018-05-01T12:44:21.469Z,980.72
2018-05-01T12:45:21.650Z,980.75
2018-05-01T12:46:21.852Z,980.81
2018-05-01T12:47:22.043Z,980.78
2018-05-01T12:48:22.251Z,980.79
2018-05-01T12:49:22.440Z,980.72
2018-05-01T12:50:22.636Z,980.75
2018-05-01T12:51:22.824Z,980.54
2018-05-01T12:52:23.021Z,980.77
2018-05-01T12:53:23.220Z,980.69
2018-05-01T12:54:23.404Z,980.77
2018-05-01T12:55:23.619Z,980.72
2018-05-01T12:56:23.827Z,980.72
2018-05-01T12:57:24.039Z,980.71
2018-05-01T12:58:24.239Z,980.85
2018-05-01T12:59:24.466Z,980.86
2018-05-01T13:00:24.659Z,980.91
2018-05-01T13:01:24.873Z,980.89
2018-05-01T13:02:25.089Z,980.68
2018-05-01T13:03:25.271Z,980.78